Snav Antares — IINQ — position and weather

sailwx.info

Track history (hours):
 
Tides and Currents Weather Stations Pressure Air Temp Water Temp Dewpoint Dewpoint Depression Visibility Wind Speed Wind Dir Waves Ship Positions

Snav Antares

Last reported at 2016-Aug-24 18:34 UTC. Time now 2016-Aug-24 21:29 UTC.
Position N 40°42' E 014°16'.

Length 42 m; draft 1.6 m.

Type: Other ship. MMSI: 247058900.

Date/timePositionNaut miles runAvg speedWind from/ knotsBaromVisibWave heightAir tempDewpointWater temp
2016-Aug-24 18:34N 40°42' E 014°16'1 0.8
2016-Aug-24 17:34N 40°42' E 014°16'1 1.1
2016-Aug-24 16:34N 40°43' E 014°16'6 1.9
2016-Aug-24 13:29N 40°48' E 014°17'1515.8
2016-Aug-24 12:32N 40°33' E 014°14'0 0.0
2016-Aug-24 11:32N 40°33' E 014°14'0 0.0
2016-Aug-24 10:20N 40°33' E 014°14'0 0.0
2016-Aug-24 09:31N 40°33' E 014°14'1111.2
2016-Aug-24 08:33N 40°44' E 014°16'2 1.9
2016-Aug-24 07:33N 40°42' E 014°16'5 0.4
2016-Aug-23 18:32N 40°38' E 014°16'0 0.1
2016-Aug-23 15:33N 40°37' E 014°16'2 1.9
2016-Aug-23 14:30N 40°39' E 014°16'1010.6
2016-Aug-23 13:33N 40°49' E 014°17'16 4.0
2016-Aug-23 09:33N 40°33' E 014°14'1111.5
2016-Aug-23 08:34N 40°45' E 014°17'3 2.5
2016-Aug-23 07:34N 40°42' E 014°16'1 0.9
2016-Aug-23 06:33N 40°41' E 014°16'8 7.5
2016-Aug-23 05:31N 40°49' E 014°17'11 1.0
2016-Aug-22 18:33N 40°38' E 014°16'2 1.0
2016-Aug-22 16:33N 40°40' E 014°16'1 0.5
2016-Aug-22 14:33N 40°40' E 014°17'10 9.7
2016-Aug-22 13:33N 40°50' E 014°17'1616.2
2016-Aug-22 12:33N 40°33' E 014°14'0 0.0
2016-Aug-22 11:33N 40°33' E 014°14'0 0.0
2016-Aug-22 10:32N 40°33' E 014°14'0 0.0
2016-Aug-22 09:33N 40°33' E 014°14'1111.1
2016-Aug-22 08:33N 40°44' E 014°17'3 2.6
2016-Aug-22 07:33N 40°42' E 014°17'1 0.7
2016-Aug-22 06:33N 40°42' E 014°16'8 8.1
2016-Aug-22 05:32N 40°50' E 014°17'1717.1
2016-Aug-22 04:33N 40°33' E 014°14'8 0.8
2016-Aug-21 18:27N 40°41' E 014°17'9 7.7
2016-Aug-21 17:18N 40°50' E 014°16'7 4.0
2016-Aug-21 15:33N 40°46' E 014°09'5 2.6
2016-Aug-21 13:34N 40°44' E 014°02'6 4.6
2016-Aug-21 12:21N 40°45' E 013°55'17 5.6
2016-Aug-21 09:20N 40°50' E 014°17'1714.5
2016-Aug-21 08:10N 40°45' E 013°55'1625.7
2016-Aug-21 07:33N 40°48' E 014°15'2 1.1
2016-Aug-21 05:31N 40°50' E 014°17'1717.4
2016-Aug-21 04:33N 40°33' E 014°14'8 0.8
2016-Aug-20 18:27N 40°41' E 014°16'0 0.2
2016-Aug-20 16:33N 40°41' E 014°17'8 8.1
2016-Aug-20 15:33N 40°33' E 014°14'7 6.6
2016-Aug-20 14:28N 40°40' E 014°17'1010.5
2016-Aug-20 13:33N 40°50' E 014°17'1716.5
2016-Aug-20 12:33N 40°33' E 014°14'0 0.0
2016-Aug-20 11:33N 40°33' E 014°14'0 0.0
2016-Aug-20 10:33N 40°33' E 014°14'0 0.0
2016-Aug-20 09:33N 40°33' E 014°14'1010.2
2016-Aug-20 08:33N 40°44' E 014°16'2 1.8
2016-Aug-20 07:34N 40°42' E 014°16'1 1.0
2016-Aug-20 06:33N 40°41' E 014°15'9 9.0
2016-Aug-20 05:32N 40°50' E 014°16'11 1.0
2016-Aug-19 18:32N 40°39' E 014°16'0 0.1
2016-Aug-19 15:33N 40°39' E 014°16'1 1.0
2016-Aug-19 14:33N 40°38' E 014°16'1211.9
2016-Aug-19 13:32N 40°50' E 014°16'1716.9
2016-Aug-19 12:33N 40°33' E 014°14'0 0.0
2016-Aug-19 11:33N 40°33' E 014°14'0 0.0
2016-Aug-19 10:33N 40°33' E 014°14'0 0.0
2016-Aug-19 09:32N 40°33' E 014°14'1010.4
2016-Aug-19 08:33N 40°44' E 014°16'1 1.2
2016-Aug-19 07:33N 40°42' E 014°16'1 1.1
2016-Aug-19 06:33N 40°41' E 014°16'9 8.1
2016-Aug-19 05:29N 40°50' E 014°16'12 1.1
2016-Aug-18 18:32N 40°38' E 014°17'11 2.3
2016-Aug-18 13:33N 40°49' E 014°17'1615.8
2016-Aug-18 12:33N 40°33' E 014°14'0 0.0
2016-Aug-18 11:19N 40°33' E 014°14'0 0.0
2016-Aug-18 10:33N 40°33' E 014°14'0 0.0
2016-Aug-18 09:32N 40°33' E 014°14'1111.1
2016-Aug-18 08:33N 40°44' E 014°17'3 3.1
2016-Aug-18 07:33N 40°41' E 014°16'2 1.6
2016-Aug-18 06:33N 40°43' E 014°16'7 7.2
2016-Aug-18 05:32N 40°50' E 014°16'1716.8
2016-Aug-18 04:33N 40°33' E 014°14'5 0.5
2016-Aug-17 18:33N 40°38' E 014°17'9 1.8
2016-Aug-17 13:33N 40°47' E 014°17'1414.2
2016-Aug-17 12:33N 40°33' E 014°14'0 0.0
2016-Aug-17 11:33N 40°33' E 014°14'0 0.0
2016-Aug-17 10:32N 40°33' E 014°14'0 0.0
2016-Aug-17 09:32N 40°33' E 014°14'1111.3
2016-Aug-17 08:34N 40°44' E 014°17'2 2.2
2016-Aug-17 07:34N 40°42' E 014°17'1 1.0
2016-Aug-17 06:34N 40°41' E 014°16'9 8.6
2016-Aug-17 05:33N 40°50' E 014°17'1715.4
2016-Aug-17 04:29N 40°33' E 014°14'5 0.5
2016-Aug-16 18:33N 40°38' E 014°17'12 4.9
2016-Aug-16 16:03N 40°50' E 014°17'1224.0
2016-Aug-16 15:33N 40°38' E 014°16'1 0.9
2016-Aug-16 14:31N 40°39' E 014°17'8 7.3
2016-Aug-16 13:29N 40°46' E 014°18'1313.9
2016-Aug-16 12:32N 40°33' E 014°14'0 0.0
2016-Aug-16 11:33N 40°33' E 014°14'0 0.0
2016-Aug-16 10:32N 40°33' E 014°14'0 0.3
2016-Aug-16 09:28N 40°34' E 014°15'1112.0
2016-Aug-16 08:33N 40°44' E 014°16'2 2.4
2016-Aug-16 07:33N 40°42' E 014°16'2 0.2
2016-Aug-15 18:30N 40°40' E 014°17'9 6.9
2016-Aug-15 17:13N 40°49' E 014°17'7 3.9
2016-Aug-15 15:33N 40°46' E 014°09'7 3.1
2016-Aug-15 13:27N 40°47' E 014°18'14 3.2
2016-Aug-15 09:11N 40°33' E 014°14'1117.9
2016-Aug-15 08:33N 40°45' E 014°17'2 2.2
2016-Aug-15 07:34N 40°42' E 014°16'  
Track history (hours):
 
Tides and Currents Weather Stations Pressure Air Temp Water Temp Dewpoint Dewpoint Depression Visibility Wind Speed Wind Dir Waves Ship Positions

Snav Antares

Last reported at 2016-Aug-24 18:34 UTC. Time now 2016-Aug-24 21:29 UTC.
Position N 40°42' E 014°16'.

Length 42 m; draft 1.6 m.

Type: Other ship. MMSI: 247058900.

Date/timePositionNaut miles runAvg speedWind from/ knotsBaromVisibWave heightAir tempDewpointWater temp
2016-Aug-24 18:34N 40°42' E 014°16'1 0.8
2016-Aug-24 17:34N 40°42' E 014°16'1 1.1
2016-Aug-24 16:34N 40°43' E 014°16'6 1.9
2016-Aug-24 13:29N 40°48' E 014°17'1515.8
2016-Aug-24 12:32N 40°33' E 014°14'0 0.0
2016-Aug-24 11:32N 40°33' E 014°14'0 0.0
2016-Aug-24 10:20N 40°33' E 014°14'0 0.0
2016-Aug-24 09:31N 40°33' E 014°14'1111.2
2016-Aug-24 08:33N 40°44' E 014°16'2 1.9
2016-Aug-24 07:33N 40°42' E 014°16'5 0.4
2016-Aug-23 18:32N 40°38' E 014°16'0 0.1
2016-Aug-23 15:33N 40°37' E 014°16'2 1.9
2016-Aug-23 14:30N 40°39' E 014°16'1010.6
2016-Aug-23 13:33N 40°49' E 014°17'16 4.0
2016-Aug-23 09:33N 40°33' E 014°14'1111.5
2016-Aug-23 08:34N 40°45' E 014°17'3 2.5
2016-Aug-23 07:34N 40°42' E 014°16'1 0.9
2016-Aug-23 06:33N 40°41' E 014°16'8 7.5
2016-Aug-23 05:31N 40°49' E 014°17'11 1.0
2016-Aug-22 18:33N 40°38' E 014°16'2 1.0
2016-Aug-22 16:33N 40°40' E 014°16'1 0.5
2016-Aug-22 14:33N 40°40' E 014°17'10 9.7
2016-Aug-22 13:33N 40°50' E 014°17'1616.2
2016-Aug-22 12:33N 40°33' E 014°14'0 0.0
2016-Aug-22 11:33N 40°33' E 014°14'0 0.0
2016-Aug-22 10:32N 40°33' E 014°14'0 0.0
2016-Aug-22 09:33N 40°33' E 014°14'1111.1
2016-Aug-22 08:33N 40°44' E 014°17'3 2.6
2016-Aug-22 07:33N 40°42' E 014°17'1 0.7
2016-Aug-22 06:33N 40°42' E 014°16'8 8.1
2016-Aug-22 05:32N 40°50' E 014°17'1717.1
2016-Aug-22 04:33N 40°33' E 014°14'8 0.8
2016-Aug-21 18:27N 40°41' E 014°17'9 7.7
2016-Aug-21 17:18N 40°50' E 014°16'7 4.0
2016-Aug-21 15:33N 40°46' E 014°09'5 2.6
2016-Aug-21 13:34N 40°44' E 014°02'6 4.6
2016-Aug-21 12:21N 40°45' E 013°55'17 5.6
2016-Aug-21 09:20N 40°50' E 014°17'1714.5
2016-Aug-21 08:10N 40°45' E 013°55'1625.7
2016-Aug-21 07:33N 40°48' E 014°15'2 1.1
2016-Aug-21 05:31N 40°50' E 014°17'1717.4
2016-Aug-21 04:33N 40°33' E 014°14'8 0.8
2016-Aug-20 18:27N 40°41' E 014°16'0 0.2
2016-Aug-20 16:33N 40°41' E 014°17'8 8.1
2016-Aug-20 15:33N 40°33' E 014°14'7 6.6
2016-Aug-20 14:28N 40°40' E 014°17'1010.5
2016-Aug-20 13:33N 40°50' E 014°17'1716.5
2016-Aug-20 12:33N 40°33' E 014°14'0 0.0
2016-Aug-20 11:33N 40°33' E 014°14'0 0.0
2016-Aug-20 10:33N 40°33' E 014°14'0 0.0
2016-Aug-20 09:33N 40°33' E 014°14'1010.2
2016-Aug-20 08:33N 40°44' E 014°16'2 1.8
2016-Aug-20 07:34N 40°42' E 014°16'1 1.0
2016-Aug-20 06:33N 40°41' E 014°15'9 9.0
2016-Aug-20 05:32N 40°50' E 014°16'11 1.0
2016-Aug-19 18:32N 40°39' E 014°16'0 0.1
2016-Aug-19 15:33N 40°39' E 014°16'1 1.0
2016-Aug-19 14:33N 40°38' E 014°16'1211.9
2016-Aug-19 13:32N 40°50' E 014°16'1716.9
2016-Aug-19 12:33N 40°33' E 014°14'0 0.0
2016-Aug-19 11:33N 40°33' E 014°14'0 0.0
2016-Aug-19 10:33N 40°33' E 014°14'0 0.0
2016-Aug-19 09:32N 40°33' E 014°14'1010.4
2016-Aug-19 08:33N 40°44' E 014°16'1 1.2
2016-Aug-19 07:33N 40°42' E 014°16'1 1.1
2016-Aug-19 06:33N 40°41' E 014°16'9 8.1
2016-Aug-19 05:29N 40°50' E 014°16'12 1.1
2016-Aug-18 18:32N 40°38' E 014°17'11 2.3
2016-Aug-18 13:33N 40°49' E 014°17'1615.8
2016-Aug-18 12:33N 40°33' E 014°14'0 0.0
2016-Aug-18 11:19N 40°33' E 014°14'0 0.0
2016-Aug-18 10:33N 40°33' E 014°14'0 0.0
2016-Aug-18 09:32N 40°33' E 014°14'1111.1
2016-Aug-18 08:33N 40°44' E 014°17'3 3.1
2016-Aug-18 07:33N 40°41' E 014°16'2 1.6
2016-Aug-18 06:33N 40°43' E 014°16'7 7.2
2016-Aug-18 05:32N 40°50' E 014°16'1716.8
2016-Aug-18 04:33N 40°33' E 014°14'5 0.5
2016-Aug-17 18:33N 40°38' E 014°17'9 1.8
2016-Aug-17 13:33N 40°47' E 014°17'1414.2
2016-Aug-17 12:33N 40°33' E 014°14'0 0.0
2016-Aug-17 11:33N 40°33' E 014°14'0 0.0
2016-Aug-17 10:32N 40°33' E 014°14'0 0.0
2016-Aug-17 09:32N 40°33' E 014°14'1111.3
2016-Aug-17 08:34N 40°44' E 014°17'2 2.2
2016-Aug-17 07:34N 40°42' E 014°17'1 1.0
2016-Aug-17 06:34N 40°41' E 014°16'9 8.6
2016-Aug-17 05:33N 40°50' E 014°17'1715.4
2016-Aug-17 04:29N 40°33' E 014°14'5 0.5
2016-Aug-16 18:33N 40°38' E 014°17'12 4.9
2016-Aug-16 16:03N 40°50' E 014°17'1224.0
2016-Aug-16 15:33N 40°38' E 014°16'1 0.9
2016-Aug-16 14:31N 40°39' E 014°17'8 7.3
2016-Aug-16 13:29N 40°46' E 014°18'1313.9
2016-Aug-16 12:32N 40°33' E 014°14'0 0.0
2016-Aug-16 11:33N 40°33' E 014°14'0 0.0
2016-Aug-16 10:32N 40°33' E 014°14'0 0.3
2016-Aug-16 09:28N 40°34' E 014°15'1112.0
2016-Aug-16 08:33N 40°44' E 014°16'2 2.4
2016-Aug-16 07:33N 40°42' E 014°16'2 0.2
2016-Aug-15 18:30N 40°40' E 014°17'9 6.9
2016-Aug-15 17:13N 40°49' E 014°17'7 3.9
2016-Aug-15 15:33N 40°46' E 014°09'7 3.1
2016-Aug-15 13:27N 40°47' E 014°18'14 3.2
2016-Aug-15 09:11N 40°33' E 014°14'1117.9
2016-Aug-15 08:33N 40°45' E 014°17'2 2.2
2016-Aug-15 07:34N 40°42' E 014°16'  

Dump ship's entire track history